Time;durP1;ratioP1;P1;durP2;ratioP2;P2;SDS_P1;SDS_P2;PMS_P1;PMS_P2;Temp;Humidity;BMP_temperature;BMP_pressure;BME280_temperature;BME280_humidity;BME280_pressure;Samples;Min_cycle;Max_cycle;Signal;HPM_P1;HPM_P2
2023/12/22 00:03:33;;;;;;;27.77;17.83;;;;;;;;;;10269766;28;20036;-63
2023/12/22 00:08:34;;;;;;;29.63;18.55;;;;;;;;;;10268845;28;20124;-66
2023/12/22 00:13:34;;;;;;;33.65;18.40;;;;;;;;;;10269043;28;20054;-65
2023/12/22 00:18:36;;;;;;;30.40;20.25;;;;;;;;;;10268248;28;20443;-65
2023/12/22 00:23:37;;;;;;;32.05;21.13;;;;;;;;;;10268747;28;20475;-66
2023/12/22 00:28:38;;;;;;;32.67;21.77;;;;;;;;;;10267840;28;20480;-65
2023/12/22 00:33:38;;;;;;;33.78;22.40;;;;;;;;;;10268189;28;20023;-65
2023/12/22 00:38:39;;;;;;;32.65;21.77;;;;;;;;;;10267484;28;20034;-65
2023/12/22 00:43:40;;;;;;;40.03;23.33;;;;;;;;;;10284616;28;20027;-65
2023/12/22 00:48:40;;;;;;;32.97;23.27;;;;;;;;;;10288694;28;20453;-65
2023/12/22 00:53:41;;;;;;;35.05;23.27;;;;;;;;;;10289042;28;20360;-65
2023/12/22 00:58:41;;;;;;;33.15;22.67;;;;;;;;;;10288801;28;20454;-65
2023/12/22 01:03:42;;;;;;;36.90;23.42;;;;;;;;;;10288520;28;20390;-65
2023/12/22 01:08:42;;;;;;;38.88;24.50;;;;;;;;;;10287992;28;20394;-65
2023/12/22 01:13:44;;;;;;;36.60;24.70;;;;;;;;;;10288276;28;20383;-66
2023/12/22 01:18:44;;;;;;;32.78;23.27;;;;;;;;;;10287865;28;20034;-66
2023/12/22 01:23:45;;;;;;;31.50;23.70;;;;;;;;;;10288054;28;20410;-65
2023/12/22 01:28:45;;;;;;;39.00;25.90;;;;;;;;;;10287327;28;20027;-64
2023/12/22 01:33:46;;;;;;;37.10;24.35;;;;;;;;;;10287421;28;20471;-65
2023/12/22 01:38:47;;;;;;;34.85;25.45;;;;;;;;;;10287449;28;20673;-64
2023/12/22 01:43:47;;;;;;;36.38;24.17;;;;;;;;;;10286655;28;20336;-64
2023/12/22 01:48:48;;;;;;;40.30;24.85;;;;;;;;;;10286510;28;20023;-64
2023/12/22 01:53:49;;;;;;;36.08;24.52;;;;;;;;;;10286536;28;20030;-63
2023/12/22 01:58:53;;;;;;;39.80;25.40;;;;;;;;;;10298642;23;20062;-57
2023/12/22 02:03:54;;;;;;;38.40;24.05;;;;;;;;;;10270528;28;20065;-58
2023/12/22 02:08:55;;;;;;;35.97;25.40;;;;;;;;;;10285987;28;20023;-58
2023/12/22 02:13:55;;;;;;;37.55;24.35;;;;;;;;;;10286542;28;20042;-58
2023/12/22 02:19:04;;;;;;;33.78;23.65;;;;;;;;;;10284933;28;20105;-59
2023/12/22 02:24:05;;;;;;;38.78;26.30;;;;;;;;;;10269917;28;20042;-58
2023/12/22 02:29:26;;;;;;;32.90;24.27;;;;;;;;;;10285746;28;20035;-58
2023/12/22 02:34:28;;;;;;;38.20;25.08;;;;;;;;;;10187051;29;20071;-58
2023/12/22 02:39:28;;;;;;;33.70;23.15;;;;;;;;;;10200205;29;20082;-58
2023/12/22 02:44:29;;;;;;;37.75;24.38;;;;;;;;;;10184121;29;20050;-58
2023/12/22 02:49:30;;;;;;;36.10;23.58;;;;;;;;;;10198573;29;20071;-60
2023/12/22 02:54:31;;;;;;;38.28;23.35;;;;;;;;;;10200015;29;20478;-59
2023/12/22 02:59:32;;;;;;;34.92;22.77;;;;;;;;;;10199285;29;20187;-60
2023/12/22 03:04:32;;;;;;;33.97;23.85;;;;;;;;;;10199787;29;20046;-59
2023/12/22 03:09:34;;;;;;;35.00;23.08;;;;;;;;;;10230053;28;20232;-59
2023/12/22 03:14:35;;;;;;;38.75;23.25;;;;;;;;;;10284834;28;20033;-59
2023/12/22 03:19:35;;;;;;;30.83;21.13;;;;;;;;;;10285151;28;20035;-59
2023/12/22 03:24:37;;;;;;;35.13;22.38;;;;;;;;;;10284901;28;20027;-59
2023/12/22 03:29:37;;;;;;;32.78;21.73;;;;;;;;;;10285308;28;20033;-59
2023/12/22 03:34:38;;;;;;;33.85;21.83;;;;;;;;;;10291900;28;20049;-58
2023/12/22 03:39:38;;;;;;;30.80;20.70;;;;;;;;;;10291541;28;20042;-58
2023/12/22 03:44:39;;;;;;;33.78;20.65;;;;;;;;;;10292133;28;20023;-58
2023/12/22 03:49:39;;;;;;;35.83;21.60;;;;;;;;;;10291425;28;20025;-59
2023/12/22 03:54:40;;;;;;;31.25;20.73;;;;;;;;;;10291890;28;20034;-58
2023/12/22 03:59:40;;;;;;;30.08;21.10;;;;;;;;;;10290359;28;20051;-58
2023/12/22 04:04:41;;;;;;;33.03;20.23;;;;;;;;;;10291447;28;20030;-58
2023/12/22 04:09:42;;;;;;;29.45;20.00;;;;;;;;;;10291129;28;20035;-57
2023/12/22 04:14:42;;;;;;;32.83;20.55;;;;;;;;;;10290599;28;20050;-57
2023/12/22 04:19:43;;;;;;;31.13;21.20;;;;;;;;;;10290488;28;20026;-58
2023/12/22 04:24:43;;;;;;;32.97;20.15;;;;;;;;;;10290083;28;20154;-59
2023/12/22 04:29:44;;;;;;;25.73;18.50;;;;;;;;;;10290314;28;20031;-58
2023/12/22 04:34:44;;;;;;;28.20;19.52;;;;;;;;;;10290156;28;20027;-60
2023/12/22 04:39:45;;;;;;;28.15;18.98;;;;;;;;;;10289198;28;20038;-59
2023/12/22 04:44:46;;;;;;;25.55;18.08;;;;;;;;;;10288790;28;20034;-58
2023/12/22 04:49:46;;;;;;;27.73;18.20;;;;;;;;;;10289446;28;20098;-59
2023/12/22 04:54:47;;;;;;;27.92;18.33;;;;;;;;;;10289650;28;20034;-58
2023/12/22 04:59:48;;;;;;;26.85;17.98;;;;;;;;;;10288587;28;20050;-56
2023/12/22 05:04:48;;;;;;;24.63;17.08;;;;;;;;;;10288780;28;20027;-58
2023/12/22 05:09:49;;;;;;;23.15;17.00;;;;;;;;;;10288885;28;20081;-57
2023/12/22 05:14:49;;;;;;;28.33;17.00;;;;;;;;;;10289020;28;20180;-58
2023/12/22 05:19:50;;;;;;;21.88;15.80;;;;;;;;;;10288364;28;20030;-58
2023/12/22 05:24:50;;;;;;;24.30;16.38;;;;;;;;;;10287871;28;20475;-56
2023/12/22 05:29:51;;;;;;;24.92;16.52;;;;;;;;;;10288593;28;20471;-58
2023/12/22 05:34:51;;;;;;;20.17;14.90;;;;;;;;;;10287536;28;20483;-58
2023/12/22 05:39:52;;;;;;;21.85;15.75;;;;;;;;;;10287154;28;20034;-58
2023/12/22 05:44:53;;;;;;;20.92;14.35;;;;;;;;;;10287864;28;20055;-57
2023/12/22 05:49:53;;;;;;;19.38;14.50;;;;;;;;;;10287161;28;20065;-58
2023/12/22 05:54:54;;;;;;;23.05;14.88;;;;;;;;;;10286676;28;20089;-58
2023/12/22 05:59:54;;;;;;;22.45;15.18;;;;;;;;;;10286691;28;20054;-57
2023/12/22 06:04:55;;;;;;;20.92;14.98;;;;;;;;;;10286610;28;20034;-58
2023/12/22 06:09:56;;;;;;;20.85;13.60;;;;;;;;;;10286117;28;20022;-58
2023/12/22 06:14:56;;;;;;;22.27;14.73;;;;;;;;;;10286106;28;20022;-59
2023/12/22 06:19:57;;;;;;;18.20;13.50;;;;;;;;;;10286981;28;20085;-59
2023/12/22 06:24:58;;;;;;;17.45;14.00;;;;;;;;;;10285935;28;20031;-58
2023/12/22 06:29:58;;;;;;;19.58;13.32;;;;;;;;;;10285829;28;20022;-58
2023/12/22 06:35:00;;;;;;;17.98;13.00;;;;;;;;;;10286399;28;20034;-59
2023/12/22 06:40:01;;;;;;;21.25;14.10;;;;;;;;;;10285677;28;20034;-58
2023/12/22 06:45:01;;;;;;;17.05;12.77;;;;;;;;;;10285111;28;20470;-60
2023/12/22 06:50:03;;;;;;;15.63;12.27;;;;;;;;;;10285869;28;20256;-60
2023/12/22 06:55:04;;;;;;;17.45;11.90;;;;;;;;;;10285175;28;20475;-58
2023/12/22 07:00:06;;;;;;;20.90;11.77;;;;;;;;;;10284770;28;20410;-56
2023/12/22 07:05:10;;;;;;;17.73;11.35;;;;;;;;;;10288403;28;20133;-58
2023/12/22 07:10:12;;;;;;;19.17;11.73;;;;;;;;;;10292908;28;20302;-56
2023/12/22 07:15:13;;;;;;;34.63;12.23;;;;;;;;;;10291802;28;20090;-54
2023/12/22 07:20:13;;;;;;;19.40;10.65;;;;;;;;;;10291950;28;20093;-54
2023/12/22 07:25:14;;;;;;;18.92;11.40;;;;;;;;;;10292877;28;20294;-55
2023/12/22 07:30:15;;;;;;;24.33;10.93;;;;;;;;;;10292498;28;20118;-55
2023/12/22 07:35:16;;;;;;;15.70;10.90;;;;;;;;;;10292662;28;20050;-53
2023/12/22 07:40:17;;;;;;;22.15;10.60;;;;;;;;;;10275314;28;20050;-57
2023/12/22 07:45:17;;;;;;;18.23;10.25;;;;;;;;;;10271842;28;20023;-57
2023/12/22 07:50:18;;;;;;;16.05;10.48;;;;;;;;;;10270765;28;20054;-54
2023/12/22 07:55:18;;;;;;;17.25;10.05;;;;;;;;;;10271183;28;20070;-53
2023/12/22 08:00:19;;;;;;;14.57;9.50;;;;;;;;;;10270209;28;20411;-54
2023/12/22 08:05:20;;;;;;;19.60;9.73;;;;;;;;;;10270546;28;20126;-54
2023/12/22 08:10:20;;;;;;;15.05;9.45;;;;;;;;;;10253206;28;20141;-53
2023/12/22 08:15:21;;;;;;;16.40;9.38;;;;;;;;;;10269207;28;20038;-58
2023/12/22 08:20:22;;;;;;;19.85;10.68;;;;;;;;;;10269175;28;20126;-57
2023/12/22 08:25:22;;;;;;;14.75;9.73;;;;;;;;;;10270248;28;20038;-54
2023/12/22 08:30:24;;;;;;;15.30;8.75;;;;;;;;;;10269458;28;20031;-54
2023/12/22 08:35:24;;;;;;;18.90;10.13;;;;;;;;;;10269135;28;20078;-54
2023/12/22 08:40:26;;;;;;;11.90;8.60;;;;;;;;;;10269176;28;20027;-53
2023/12/22 08:45:30;;;;;;;16.58;9.80;;;;;;;;;;10269011;28;20026;-51
2023/12/22 08:50:30;;;;;;;18.23;9.48;;;;;;;;;;10268439;28;20547;-54
2023/12/22 08:55:31;;;;;;;19.95;9.30;;;;;;;;;;10268656;28;20026;-53
2023/12/22 09:00:32;;;;;;;12.18;8.70;;;;;;;;;;10267802;28;20054;-57
2023/12/22 09:05:32;;;;;;;13.60;8.98;;;;;;;;;;10268253;28;20023;-54
2023/12/22 09:10:33;;;;;;;13.13;8.70;;;;;;;;;;10267735;28;20031;-53
2023/12/22 09:15:34;;;;;;;14.52;9.07;;;;;;;;;;10268831;28;20033;-51
2023/12/22 09:20:34;;;;;;;12.90;8.52;;;;;;;;;;10267913;28;20395;-53
2023/12/22 09:25:35;;;;;;;13.40;8.77;;;;;;;;;;10267795;28;20050;-53
2023/12/22 09:30:35;;;;;;;13.68;8.95;;;;;;;;;;10267077;28;20026;-55
2023/12/22 09:35:36;;;;;;;11.88;8.77;;;;;;;;;;10267157;28;20514;-53
2023/12/22 09:40:38;;;;;;;26.23;12.13;;;;;;;;;;10266449;28;20038;-53
2023/12/22 09:45:40;;;;;;;24.30;10.65;;;;;;;;;;10267422;28;20026;-55
2023/12/22 09:50:43;;;;;;;22.10;11.20;;;;;;;;;;10266897;28;20391;-53
2023/12/22 09:55:46;;;;;;;25.50;11.13;;;;;;;;;;10268914;28;20027;-54
2023/12/22 10:00:48;;;;;;;22.63;11.25;;;;;;;;;;10286378;28;20062;-57
2023/12/22 10:05:49;;;;;;;23.35;11.27;;;;;;;;;;10268396;28;20402;-56
2023/12/22 10:10:52;;;;;;;21.45;11.00;;;;;;;;;;10269333;28;20030;-53
2023/12/22 10:15:54;;;;;;;20.88;11.07;;;;;;;;;;10286916;28;20037;-57
2023/12/22 10:20:55;;;;;;;20.15;10.85;;;;;;;;;;10286495;28;20035;-55
2023/12/22 10:25:58;;;;;;;22.73;10.98;;;;;;;;;;10286345;28;20402;-57
2023/12/22 10:31:06;;;;;;;26.90;11.15;;;;;;;;;;10286520;28;20046;-53
2023/12/22 10:36:08;;;;;;;15.93;10.02;;;;;;;;;;10286469;28;20027;-57
2023/12/22 10:41:08;;;;;;;18.88;9.80;;;;;;;;;;10283692;28;20034;-57
2023/12/22 10:46:10;;;;;;;18.05;10.15;;;;;;;;;;10275999;28;20027;-54
2023/12/22 10:51:11;;;;;;;15.00;9.80;;;;;;;;;;10292116;28;20027;-54
2023/12/22 10:56:12;;;;;;;20.52;10.00;;;;;;;;;;10288596;28;20061;-57
2023/12/22 11:01:15;;;;;;;21.33;9.90;;;;;;;;;;10292617;28;20065;-54
2023/12/22 11:06:16;;;;;;;17.30;9.65;;;;;;;;;;10293135;28;20034;-56
2023/12/22 11:11:35;;;;;;;14.27;8.85;;;;;;;;;;10292286;28;20115;-54
2023/12/22 11:16:37;;;;;;;17.67;9.40;;;;;;;;;;10277256;28;20085;-53
2023/12/22 11:21:39;;;;;;;20.45;8.85;;;;;;;;;;10292964;28;20038;-53
2023/12/22 11:26:44;;;;;;;17.90;9.30;;;;;;;;;;10292846;28;20035;-54
2023/12/22 11:31:47;;;;;;;18.58;10.15;;;;;;;;;;10292181;28;20279;-54
2023/12/22 11:36:50;;;;;;;13.50;8.55;;;;;;;;;;10275521;28;20061;-54
2023/12/22 11:41:52;;;;;;;18.00;9.85;;;;;;;;;;10268345;28;20041;-57
2023/12/22 11:47:04;;;;;;;13.27;8.23;;;;;;;;;;10291815;28;20518;-53
2023/12/22 11:52:16;;;;;;;16.63;8.77;;;;;;;;;;10291890;28;20154;-53
2023/12/22 11:57:37;;;;;;;17.58;9.15;;;;;;;;;;10290610;28;20030;-52
2023/12/22 12:02:40;;;;;;;16.23;9.10;;;;;;;;;;10280023;28;20134;-54
2023/12/22 12:07:49;;;;;;;13.60;8.38;;;;;;;;;;10290975;28;20035;-54
2023/12/22 12:13:07;;;;;;;15.75;8.70;;;;;;;;;;10290786;28;20105;-54
2023/12/22 12:18:09;;;;;;;15.57;9.02;;;;;;;;;;10290587;28;20224;-57
2023/12/22 12:23:09;;;;;;;14.85;7.97;;;;;;;;;;10283755;28;20114;-53
2023/12/22 12:28:10;;;;;;;15.45;8.63;;;;;;;;;;10290434;28;20478;-55
2023/12/22 12:33:15;;;;;;;17.98;8.57;;;;;;;;;;10273337;28;20034;-54
2023/12/22 12:38:23;;;;;;;14.52;7.50;;;;;;;;;;10288382;28;20371;-54
2023/12/22 12:43:23;;;;;;;14.77;8.02;;;;;;;;;;10288600;28;20027;-55
2023/12/22 12:48:24;;;;;;;15.75;8.57;;;;;;;;;;10284111;28;20030;-56
2023/12/22 12:53:25;;;;;;;13.88;7.90;;;;;;;;;;10287307;28;20089;-54
2023/12/22 12:58:32;;;;;;;15.80;7.88;;;;;;;;;;10264847;28;20047;-54
2023/12/22 13:03:33;;;;;;;14.82;7.95;;;;;;;;;;10288306;28;20030;-56
2023/12/22 13:08:34;;;;;;;13.38;7.13;;;;;;;;;;10287367;28;20383;-57
2023/12/22 13:13:42;;;;;;;14.40;7.70;;;;;;;;;;10286355;28;20035;-54
2023/12/22 13:18:43;;;;;;;13.40;7.75;;;;;;;;;;10280846;28;20046;-54
2023/12/22 13:23:44;;;;;;;16.17;7.28;;;;;;;;;;10287266;28;20395;-55
2023/12/22 13:28:45;;;;;;;14.50;6.97;;;;;;;;;;10256431;28;20035;-56
2023/12/22 13:33:45;;;;;;;16.77;7.40;;;;;;;;;;10266579;28;20058;-55
2023/12/22 13:38:48;;;;;;;11.88;6.60;;;;;;;;;;10281680;28;20579;-54
2023/12/22 13:43:48;;;;;;;10.93;7.25;;;;;;;;;;10287288;28;20419;-57
2023/12/22 13:48:54;;;;;;;15.85;7.55;;;;;;;;;;10286929;28;20097;-53
2023/12/22 13:53:56;;;;;;;13.45;6.68;;;;;;;;;;10280742;28;20061;-54
2023/12/22 13:58:56;;;;;;;11.75;6.95;;;;;;;;;;10264707;28;20086;-54
2023/12/22 14:04:00;;;;;;;11.45;7.13;;;;;;;;;;10264605;28;20486;-55
2023/12/22 14:09:00;;;;;;;11.98;6.72;;;;;;;;;;10264898;28;20027;-53
2023/12/22 14:14:01;;;;;;;12.10;7.18;;;;;;;;;;10263865;28;20504;-54
2023/12/22 14:19:01;;;;;;;11.02;6.97;;;;;;;;;;10271460;28;20475;-54
2023/12/22 14:24:03;;;;;;;13.02;6.55;;;;;;;;;;10283821;28;20041;-56
2023/12/22 14:29:03;;;;;;;11.77;7.18;;;;;;;;;;10285138;28;20027;-53
2023/12/22 14:34:04;;;;;;;11.02;6.53;;;;;;;;;;10283683;28;20035;-56
2023/12/22 14:39:05;;;;;;;12.45;6.68;;;;;;;;;;10280983;28;20037;-53
2023/12/22 14:44:05;;;;;;;10.82;6.75;;;;;;;;;;10280012;28;20046;-54
2023/12/22 14:49:07;;;;;;;11.13;6.82;;;;;;;;;;10284738;28;20034;-54
2023/12/22 14:54:08;;;;;;;12.40;6.30;;;;;;;;;;10283025;28;20371;-54
2023/12/22 14:59:12;;;;;;;9.15;6.50;;;;;;;;;;10277894;28;20122;-54
2023/12/22 15:04:12;;;;;;;8.15;5.85;;;;;;;;;;10285412;28;20540;-53
2023/12/22 15:09:13;;;;;;;9.55;6.13;;;;;;;;;;10267887;28;20027;-54
2023/12/22 15:14:14;;;;;;;8.52;6.05;;;;;;;;;;10283315;28;20027;-54
2023/12/22 15:19:14;;;;;;;10.50;6.25;;;;;;;;;;10283493;28;20031;-53
2023/12/22 15:24:15;;;;;;;10.05;5.75;;;;;;;;;;10285473;28;20045;-56
2023/12/22 15:29:16;;;;;;;9.98;5.82;;;;;;;;;;10290159;28;20031;-56
2023/12/22 15:34:17;;;;;;;8.75;5.88;;;;;;;;;;10286699;28;20035;-54
2023/12/22 15:39:18;;;;;;;10.45;5.85;;;;;;;;;;10290901;28;20176;-55
2023/12/22 15:44:19;;;;;;;10.35;6.00;;;;;;;;;;10292345;28;20019;-57
2023/12/22 15:49:20;;;;;;;9.00;5.97;;;;;;;;;;10290238;28;20031;-53
2023/12/22 15:54:21;;;;;;;11.65;6.30;;;;;;;;;;10286577;28;20054;-53
2023/12/22 15:59:25;;;;;;;9.43;5.82;;;;;;;;;;10283931;28;20054;-53
2023/12/22 16:04:26;;;;;;;11.35;6.18;;;;;;;;;;10290573;28;20115;-54
2023/12/22 16:09:27;;;;;;;11.32;6.03;;;;;;;;;;10289959;28;20363;-58
2023/12/22 16:14:28;;;;;;;9.68;6.35;;;;;;;;;;10290295;28;20023;-54
2023/12/22 16:19:29;;;;;;;15.77;6.60;;;;;;;;;;10284534;28;20034;-54
2023/12/22 16:24:29;;;;;;;9.05;5.78;;;;;;;;;;10288985;28;20032;-52
2023/12/22 16:29:30;;;;;;;11.30;6.50;;;;;;;;;;10288403;28;20486;-54
2023/12/22 16:34:30;;;;;;;11.90;6.68;;;;;;;;;;10279052;28;20031;-55
2023/12/22 16:39:31;;;;;;;7.68;5.18;;;;;;;;;;10285870;28;20035;-55
2023/12/22 16:44:32;;;;;;;19.15;6.45;;;;;;;;;;10288008;28;20073;-55
2023/12/22 16:49:32;;;;;;;7.55;5.55;;;;;;;;;;10287974;28;20038;-54
2023/12/22 16:54:33;;;;;;;9.10;5.22;;;;;;;;;;10280261;28;20200;-55
2023/12/22 16:59:33;;;;;;;10.85;6.05;;;;;;;;;;10283262;28;20105;-55
2023/12/22 17:04:34;;;;;;;12.77;5.50;;;;;;;;;;10268350;28;20600;-54
2023/12/22 17:09:34;;;;;;;9.35;5.72;;;;;;;;;;10267237;28;20037;-56
2023/12/22 17:14:35;;;;;;;9.68;5.88;;;;;;;;;;10267562;28;20034;-53
2023/12/22 17:19:36;;;;;;;9.23;5.72;;;;;;;;;;10267271;28;20037;-55
2023/12/22 17:24:42;;;;;;;9.00;5.85;;;;;;;;;;10266170;28;20026;-57
2023/12/22 17:29:43;;;;;;;9.13;6.28;;;;;;;;;;10266382;28;20026;-55
2023/12/22 17:34:43;;;;;;;12.10;6.65;;;;;;;;;;10266115;28;20023;-56
2023/12/22 17:39:44;;;;;;;11.15;6.65;;;;;;;;;;10265687;28;20031;-54
2023/12/22 17:44:44;;;;;;;12.82;6.60;;;;;;;;;;10265949;28;20245;-57
2023/12/22 17:49:45;;;;;;;13.07;7.68;;;;;;;;;;10265950;28;20031;-53
2023/12/22 17:54:46;;;;;;;12.82;7.80;;;;;;;;;;10268265;28;20030;-56
2023/12/22 17:59:46;;;;;;;15.20;7.13;;;;;;;;;;10284570;28;20077;-57
2023/12/22 18:04:47;;;;;;;14.25;8.25;;;;;;;;;;10286457;28;20038;-58
2023/12/22 18:09:47;;;;;;;27.17;8.45;;;;;;;;;;10281195;28;20031;-58
2023/12/22 18:14:48;;;;;;;13.73;7.82;;;;;;;;;;10286050;28;20062;-55
2023/12/22 18:19:48;;;;;;;13.90;7.60;;;;;;;;;;10284970;28;20038;-57
2023/12/22 18:24:49;;;;;;;12.60;8.05;;;;;;;;;;10275316;28;20090;-54
2023/12/22 18:29:50;;;;;;;17.60;8.80;;;;;;;;;;10284790;28;20053;-55
2023/12/22 18:34:51;;;;;;;18.40;9.07;;;;;;;;;;10286827;28;20046;-57
2023/12/22 18:39:51;;;;;;;13.88;8.63;;;;;;;;;;10285154;28;20026;-57
2023/12/22 18:44:55;;;;;;;15.07;8.18;;;;;;;;;;10285416;28;20022;-56
2023/12/22 18:49:58;;;;;;;15.63;8.98;;;;;;;;;;10278215;28;20491;-55
2023/12/22 18:54:58;;;;;;;13.48;7.85;;;;;;;;;;10284070;28;20027;-58
2023/12/22 18:59:59;;;;;;;16.27;8.40;;;;;;;;;;10280792;28;20125;-58
2023/12/22 19:04:59;;;;;;;15.07;8.07;;;;;;;;;;10273896;28;20375;-57
2023/12/22 19:10:00;;;;;;;13.93;8.07;;;;;;;;;;10281531;28;20379;-59
2023/12/22 19:15:01;;;;;;;14.98;8.15;;;;;;;;;;10279058;28;20383;-58
2023/12/22 19:20:01;;;;;;;12.13;8.43;;;;;;;;;;10287155;28;20045;-55
2023/12/22 19:25:02;;;;;;;15.40;7.85;;;;;;;;;;10285828;28;20168;-55
2023/12/22 19:30:03;;;;;;;12.35;8.18;;;;;;;;;;10280249;28;20023;-58
2023/12/22 19:35:04;;;;;;;12.98;8.23;;;;;;;;;;10290887;28;20031;-57
2023/12/22 19:40:06;;;;;;;18.50;9.18;;;;;;;;;;10292268;28;20082;-55
2023/12/22 19:45:10;;;;;;;14.88;9.02;;;;;;;;;;10284228;28;20069;-56
2023/12/22 19:50:11;;;;;;;17.55;8.57;;;;;;;;;;10278678;28;20550;-57
2023/12/22 19:55:11;;;;;;;16.75;8.70;;;;;;;;;;10286632;28;20027;-56
2023/12/22 20:00:12;;;;;;;19.33;9.38;;;;;;;;;;10282454;28;20083;-57
2023/12/22 20:05:13;;;;;;;12.85;7.97;;;;;;;;;;10290799;28;20070;-55
2023/12/22 20:10:14;;;;;;;14.40;8.65;;;;;;;;;;10287840;28;20509;-55
2023/12/22 20:15:14;;;;;;;19.50;8.82;;;;;;;;;;10289584;28;20085;-55
2023/12/22 20:20:17;;;;;;;16.67;8.90;;;;;;;;;;10290296;28;20442;-56
2023/12/22 20:25:17;;;;;;;12.40;8.85;;;;;;;;;;10288845;28;20023;-55
2023/12/22 20:30:18;;;;;;;14.32;8.82;;;;;;;;;;10268532;28;20023;-54
2023/12/22 20:35:19;;;;;;;13.02;8.60;;;;;;;;;;10269242;28;20027;-58
2023/12/22 20:40:19;;;;;;;14.05;8.68;;;;;;;;;;10268563;28;20034;-55
2023/12/22 20:45:20;;;;;;;14.95;8.30;;;;;;;;;;10269013;28;20027;-55
2023/12/22 20:50:21;;;;;;;11.32;7.35;;;;;;;;;;10267684;28;20474;-55
2023/12/22 20:55:24;;;;;;;13.60;7.88;;;;;;;;;;10268251;28;20097;-55
2023/12/22 21:00:24;;;;;;;17.00;8.05;;;;;;;;;;10267751;28;20053;-58
2023/12/22 21:05:26;;;;;;;29.00;9.98;;;;;;;;;;10266381;28;20043;-57
2023/12/22 21:10:27;;;;;;;20.63;9.77;;;;;;;;;;10266605;28;20034;-56
2023/12/22 21:15:27;;;;;;;20.67;10.25;;;;;;;;;;10268133;28;20030;-58
2023/12/22 21:20:29;;;;;;;20.70;11.10;;;;;;;;;;10286548;28;20151;-58
2023/12/22 21:25:29;;;;;;;20.75;11.00;;;;;;;;;;10285805;28;20500;-57
2023/12/22 21:30:31;;;;;;;25.20;12.05;;;;;;;;;;10279664;28;20078;-57
2023/12/22 21:35:32;;;;;;;24.05;11.55;;;;;;;;;;10286470;28;20042;-57
2023/12/22 21:40:33;;;;;;;22.30;11.48;;;;;;;;;;10286856;28;20026;-56
2023/12/22 21:45:33;;;;;;;19.23;11.52;;;;;;;;;;10287783;28;20038;-58
2023/12/22 21:50:34;;;;;;;20.35;12.20;;;;;;;;;;10286331;28;20030;-58
2023/12/22 21:55:34;;;;;;;18.58;11.95;;;;;;;;;;10286743;28;20034;-57
2023/12/22 22:00:35;;;;;;;18.98;11.45;;;;;;;;;;10285895;28;20043;-57
2023/12/22 22:05:36;;;;;;;16.48;11.52;;;;;;;;;;10287369;28;20046;-56
2023/12/22 22:10:36;;;;;;;20.10;11.43;;;;;;;;;;10285915;28;20106;-55
2023/12/22 22:15:37;;;;;;;19.65;11.98;;;;;;;;;;10285988;28;20038;-56
2023/12/22 22:20:38;;;;;;;19.92;11.82;;;;;;;;;;10286127;28;20034;-56
2023/12/22 22:25:38;;;;;;;18.90;11.80;;;;;;;;;;10286150;28;20034;-58
2023/12/22 22:30:39;;;;;;;14.15;10.55;;;;;;;;;;10286403;28;20026;-57
2023/12/22 22:35:40;;;;;;;17.90;11.73;;;;;;;;;;10285284;28;20023;-57
2023/12/22 22:40:40;;;;;;;16.92;11.75;;;;;;;;;;10285291;28;20026;-56
2023/12/22 22:45:41;;;;;;;17.40;11.57;;;;;;;;;;10285630;28;20027;-57
2023/12/22 22:50:42;;;;;;;19.70;11.68;;;;;;;;;;10285314;28;20027;-58
2023/12/22 22:55:42;;;;;;;17.40;11.50;;;;;;;;;;10285372;28;20034;-58
2023/12/22 23:00:43;;;;;;;15.00;11.00;;;;;;;;;;10285367;28;20054;-57
2023/12/22 23:05:43;;;;;;;20.40;11.52;;;;;;;;;;10285539;28;20522;-58
2023/12/22 23:10:45;;;;;;;17.60;11.60;;;;;;;;;;10284201;28;20031;-58
2023/12/22 23:15:45;;;;;;;16.00;11.50;;;;;;;;;;10284049;28;20038;-58
2023/12/22 23:20:46;;;;;;;17.58;11.13;;;;;;;;;;10285025;28;20371;-58
2023/12/22 23:25:48;;;;;;;18.85;11.25;;;;;;;;;;10285671;28;20433;-59
2023/12/22 23:30:48;;;;;;;19.42;10.98;;;;;;;;;;10285114;28;20363;-58
2023/12/22 23:35:49;;;;;;;18.20;10.40;;;;;;;;;;10285409;28;20034;-59
2023/12/22 23:40:50;;;;;;;15.77;10.55;;;;;;;;;;10285260;28;20086;-59
2023/12/22 23:45:51;;;;;;;15.60;10.55;;;;;;;;;;10285881;28;20110;-58
2023/12/22 23:50:51;;;;;;;20.95;9.82;;;;;;;;;;10292078;28;20478;-58
2023/12/22 23:55:52;;;;;;;18.20;10.80;;;;;;;;;;10291250;28;20372;-59
